sensor_id;sensor_type;location;lat;lon;timestamp;P1;durP1;ratioP1;P2;durP2;ratioP2
65691;SDS011;52411;52.716;6.696;2022-09-01T00:01:04;7.32;;;3.25;;
65691;SDS011;52411;52.716;6.696;2022-09-01T00:06:01;9.45;;;3.40;;
65691;SDS011;52411;52.716;6.696;2022-09-01T00:08:28;6.90;;;3.30;;
65691;SDS011;52411;52.716;6.696;2022-09-01T00:10:55;6.32;;;3.17;;
65691;SDS011;52411;52.716;6.696;2022-09-01T00:13:20;7.28;;;3.60;;
65691;SDS011;52411;52.716;6.696;2022-09-01T00:15:46;4.63;;;3.47;;
65691;SDS011;52411;52.716;6.696;2022-09-01T00:18:12;5.25;;;3.22;;
65691;SDS011;52411;52.716;6.696;2022-09-01T00:20:39;5.50;;;3.63;;
65691;SDS011;52411;52.716;6.696;2022-09-01T00:23:05;4.93;;;3.60;;
65691;SDS011;52411;52.716;6.696;2022-09-01T00:25:30;4.40;;;3.50;;
65691;SDS011;52411;52.716;6.696;2022-09-01T00:27:56;6.65;;;3.50;;
65691;SDS011;52411;52.716;6.696;2022-09-01T00:30:24;5.00;;;3.20;;
65691;SDS011;52411;52.716;6.696;2022-09-01T00:32:50;8.00;;;4.00;;
65691;SDS011;52411;52.716;6.696;2022-09-01T00:35:16;6.13;;;3.22;;
65691;SDS011;52411;52.716;6.696;2022-09-01T00:37:43;6.38;;;3.70;;
65691;SDS011;52411;52.716;6.696;2022-09-01T00:40:09;9.63;;;3.20;;
65691;SDS011;52411;52.716;6.696;2022-09-01T00:42:37;8.63;;;3.58;;
65691;SDS011;52411;52.716;6.696;2022-09-01T00:45:04;5.43;;;3.17;;
65691;SDS011;52411;52.716;6.696;2022-09-01T00:47:31;5.43;;;3.35;;
65691;SDS011;52411;52.716;6.696;2022-09-01T00:49:57;8.20;;;3.60;;
65691;SDS011;52411;52.716;6.696;2022-09-01T00:52:28;8.10;;;3.70;;
65691;SDS011;52411;52.716;6.696;2022-09-01T00:55:04;12.18;;;3.50;;
65691;SDS011;52411;52.716;6.696;2022-09-01T00:57:35;5.20;;;3.20;;
65691;SDS011;52411;52.716;6.696;2022-09-01T01:00:05;5.65;;;3.70;;
65691;SDS011;52411;52.716;6.696;2022-09-01T01:02:35;5.70;;;3.60;;
65691;SDS011;52411;52.716;6.696;2022-09-01T01:05:03;6.93;;;3.90;;
65691;SDS011;52411;52.716;6.696;2022-09-01T01:07:30;4.18;;;3.67;;
65691;SDS011;52411;52.716;6.696;2022-09-01T01:10:01;5.03;;;3.80;;
65691;SDS011;52411;52.716;6.696;2022-09-01T01:12:26;4.88;;;3.80;;
65691;SDS011;52411;52.716;6.696;2022-09-01T01:14:54;4.43;;;3.70;;
65691;SDS011;52411;52.716;6.696;2022-09-01T01:17:21;6.35;;;3.80;;
65691;SDS011;52411;52.716;6.696;2022-09-01T01:19:48;4.20;;;3.70;;
65691;SDS011;52411;52.716;6.696;2022-09-01T01:22:47;5.53;;;3.92;;
65691;SDS011;52411;52.716;6.696;2022-09-01T01:25:38;4.25;;;3.70;;
65691;SDS011;52411;52.716;6.696;2022-09-01T01:30:47;6.82;;;4.10;;
65691;SDS011;52411;52.716;6.696;2022-09-01T01:33:19;6.20;;;3.92;;
65691;SDS011;52411;52.716;6.696;2022-09-01T01:35:50;7.63;;;3.92;;
65691;SDS011;52411;52.716;6.696;2022-09-01T01:38:18;9.25;;;3.97;;
65691;SDS011;52411;52.716;6.696;2022-09-01T01:40:46;12.43;;;4.00;;
65691;SDS011;52411;52.716;6.696;2022-09-01T01:43:13;4.28;;;3.88;;
65691;SDS011;52411;52.716;6.696;2022-09-01T01:45:44;7.60;;;4.10;;
65691;SDS011;52411;52.716;6.696;2022-09-01T01:48:13;7.80;;;4.43;;
65691;SDS011;52411;52.716;6.696;2022-09-01T01:50:39;5.03;;;3.80;;
65691;SDS011;52411;52.716;6.696;2022-09-01T01:53:07;6.50;;;4.20;;
65691;SDS011;52411;52.716;6.696;2022-09-01T01:55:38;4.95;;;3.85;;
65691;SDS011;52411;52.716;6.696;2022-09-01T01:58:05;5.93;;;4.25;;
65691;SDS011;52411;52.716;6.696;2022-09-01T02:00:32;6.47;;;4.25;;
65691;SDS011;52411;52.716;6.696;2022-09-01T02:02:59;9.27;;;4.40;;
65691;SDS011;52411;52.716;6.696;2022-09-01T02:05:29;4.97;;;3.97;;
65691;SDS011;52411;52.716;6.696;2022-09-01T02:07:59;7.47;;;4.22;;
65691;SDS011;52411;52.716;6.696;2022-09-01T02:10:29;9.93;;;4.28;;
65691;SDS011;52411;52.716;6.696;2022-09-01T02:13:00;5.35;;;4.05;;
65691;SDS011;52411;52.716;6.696;2022-09-01T02:15:30;9.60;;;4.43;;
65691;SDS011;52411;52.716;6.696;2022-09-01T02:18:04;4.30;;;3.85;;
65691;SDS011;52411;52.716;6.696;2022-09-01T02:20:30;8.57;;;4.28;;
65691;SDS011;52411;52.716;6.696;2022-09-01T02:22:57;5.20;;;4.07;;
65691;SDS011;52411;52.716;6.696;2022-09-01T02:25:34;7.05;;;4.05;;
65691;SDS011;52411;52.716;6.696;2022-09-01T02:28:02;4.80;;;4.22;;
65691;SDS011;52411;52.716;6.696;2022-09-01T02:30:30;4.90;;;4.30;;
65691;SDS011;52411;52.716;6.696;2022-09-01T02:32:58;7.13;;;4.30;;
65691;SDS011;52411;52.716;6.696;2022-09-01T02:35:25;5.97;;;4.50;;
65691;SDS011;52411;52.716;6.696;2022-09-01T02:38:00;9.05;;;4.30;;
65691;SDS011;52411;52.716;6.696;2022-09-01T02:40:27;5.35;;;4.28;;
65691;SDS011;52411;52.716;6.696;2022-09-01T02:42:56;5.97;;;4.82;;
65691;SDS011;52411;52.716;6.696;2022-09-01T02:45:24;5.70;;;4.22;;
65691;SDS011;52411;52.716;6.696;2022-09-01T02:47:51;10.18;;;5.00;;
65691;SDS011;52411;52.716;6.696;2022-09-01T02:50:18;6.05;;;4.70;;
65691;SDS011;52411;52.716;6.696;2022-09-01T02:52:44;6.38;;;4.60;;
65691;SDS011;52411;52.716;6.696;2022-09-01T02:55:13;6.50;;;4.70;;
65691;SDS011;52411;52.716;6.696;2022-09-01T02:57:49;6.22;;;4.60;;
65691;SDS011;52411;52.716;6.696;2022-09-01T03:00:21;7.40;;;4.90;;
65691;SDS011;52411;52.716;6.696;2022-09-01T03:02:53;5.93;;;4.72;;
65691;SDS011;52411;52.716;6.696;2022-09-01T03:05:21;11.52;;;4.60;;
65691;SDS011;52411;52.716;6.696;2022-09-01T03:07:53;6.00;;;4.40;;
65691;SDS011;52411;52.716;6.696;2022-09-01T03:10:29;6.78;;;4.50;;
65691;SDS011;52411;52.716;6.696;2022-09-01T03:13:00;5.72;;;4.43;;
65691;SDS011;52411;52.716;6.696;2022-09-01T03:15:30;5.13;;;4.63;;
65691;SDS011;52411;52.716;6.696;2022-09-01T03:17:58;5.00;;;4.50;;
65691;SDS011;52411;52.716;6.696;2022-09-01T03:20:25;6.82;;;4.97;;
65691;SDS011;52411;52.716;6.696;2022-09-01T03:22:52;6.20;;;4.82;;
65691;SDS011;52411;52.716;6.696;2022-09-01T03:25:20;7.47;;;5.10;;
65691;SDS011;52411;52.716;6.696;2022-09-01T03:27:47;10.60;;;5.05;;
65691;SDS011;52411;52.716;6.696;2022-09-01T03:30:13;8.45;;;4.90;;
65691;SDS011;52411;52.716;6.696;2022-09-01T03:32:39;6.93;;;4.53;;
65691;SDS011;52411;52.716;6.696;2022-09-01T03:35:05;6.82;;;4.85;;
65691;SDS011;52411;52.716;6.696;2022-09-01T03:37:31;7.60;;;5.30;;
65691;SDS011;52411;52.716;6.696;2022-09-01T03:39:57;7.68;;;5.00;;
65691;SDS011;52411;52.716;6.696;2022-09-01T03:42:24;10.75;;;4.80;;
65691;SDS011;52411;52.716;6.696;2022-09-01T03:44:53;5.70;;;5.10;;
65691;SDS011;52411;52.716;6.696;2022-09-01T03:47:20;5.82;;;5.20;;
65691;SDS011;52411;52.716;6.696;2022-09-01T03:49:46;8.65;;;5.68;;
65691;SDS011;52411;52.716;6.696;2022-09-01T03:52:13;7.22;;;5.60;;
65691;SDS011;52411;52.716;6.696;2022-09-01T03:54:41;6.32;;;5.72;;
65691;SDS011;52411;52.716;6.696;2022-09-01T03:57:08;6.00;;;5.40;;
65691;SDS011;52411;52.716;6.696;2022-09-01T03:59:34;10.85;;;5.57;;
65691;SDS011;52411;52.716;6.696;2022-09-01T04:02:02;6.15;;;4.65;;
65691;SDS011;52411;52.716;6.696;2022-09-01T04:04:28;9.30;;;5.10;;
65691;SDS011;52411;52.716;6.696;2022-09-01T04:06:57;5.70;;;4.95;;
65691;SDS011;52411;52.716;6.696;2022-09-01T04:09:24;6.78;;;5.00;;
65691;SDS011;52411;52.716;6.696;2022-09-01T04:11:51;7.13;;;5.20;;
65691;SDS011;52411;52.716;6.696;2022-09-01T04:14:17;6.82;;;5.28;;
65691;SDS011;52411;52.716;6.696;2022-09-01T04:16:44;5.70;;;5.05;;
65691;SDS011;52411;52.716;6.696;2022-09-01T04:19:31;5.97;;;5.20;;
65691;SDS011;52411;52.716;6.696;2022-09-01T04:22:01;6.97;;;5.30;;
65691;SDS011;52411;52.716;6.696;2022-09-01T04:24:28;7.28;;;5.40;;
65691;SDS011;52411;52.716;6.696;2022-09-01T04:26:56;8.05;;;5.07;;
65691;SDS011;52411;52.716;6.696;2022-09-01T04:29:25;7.38;;;5.38;;
65691;SDS011;52411;52.716;6.696;2022-09-01T04:31:56;8.93;;;5.50;;
65691;SDS011;52411;52.716;6.696;2022-09-01T04:34:27;6.10;;;5.45;;
65691;SDS011;52411;52.716;6.696;2022-09-01T04:37:01;6.22;;;4.93;;
65691;SDS011;52411;52.716;6.696;2022-09-01T04:39:31;5.38;;;4.65;;
65691;SDS011;52411;52.716;6.696;2022-09-01T04:41:56;7.63;;;5.47;;
65691;SDS011;52411;52.716;6.696;2022-09-01T04:44:22;7.03;;;5.22;;
65691;SDS011;52411;52.716;6.696;2022-09-01T04:46:49;7.38;;;5.30;;
65691;SDS011;52411;52.716;6.696;2022-09-01T04:49:16;7.80;;;5.50;;
65691;SDS011;52411;52.716;6.696;2022-09-01T04:51:47;6.25;;;5.47;;
65691;SDS011;52411;52.716;6.696;2022-09-01T04:54:14;10.18;;;5.50;;
65691;SDS011;52411;52.716;6.696;2022-09-01T04:56:41;8.18;;;5.80;;
65691;SDS011;52411;52.716;6.696;2022-09-01T04:59:09;6.97;;;5.93;;
65691;SDS011;52411;52.716;6.696;2022-09-01T05:01:36;9.07;;;5.88;;
65691;SDS011;52411;52.716;6.696;2022-09-01T05:04:10;7.10;;;5.60;;
65691;SDS011;52411;52.716;6.696;2022-09-01T05:06:43;9.82;;;5.75;;
65691;SDS011;52411;52.716;6.696;2022-09-01T05:09:14;7.18;;;5.13;;
65691;SDS011;52411;52.716;6.696;2022-09-01T05:11:41;7.68;;;5.63;;
65691;SDS011;52411;52.716;6.696;2022-09-01T05:14:10;6.45;;;5.43;;
65691;SDS011;52411;52.716;6.696;2022-09-01T05:16:37;7.15;;;5.57;;
65691;SDS011;52411;52.716;6.696;2022-09-01T05:19:05;6.80;;;5.70;;
65691;SDS011;52411;52.716;6.696;2022-09-01T05:21:38;6.72;;;5.78;;
65691;SDS011;52411;52.716;6.696;2022-09-01T05:24:07;7.18;;;5.53;;
65691;SDS011;52411;52.716;6.696;2022-09-01T05:26:34;9.23;;;5.57;;
65691;SDS011;52411;52.716;6.696;2022-09-01T05:29:03;7.35;;;5.65;;
65691;SDS011;52411;52.716;6.696;2022-09-01T05:31:34;7.97;;;5.40;;
65691;SDS011;52411;52.716;6.696;2022-09-01T05:34:01;6.72;;;5.35;;
65691;SDS011;52411;52.716;6.696;2022-09-01T05:36:28;10.32;;;5.25;;
65691;SDS011;52411;52.716;6.696;2022-09-01T05:38:57;8.68;;;5.72;;
65691;SDS011;52411;52.716;6.696;2022-09-01T05:41:24;20.55;;;5.70;;
65691;SDS011;52411;52.716;6.696;2022-09-01T05:43:50;8.27;;;5.53;;
65691;SDS011;52411;52.716;6.696;2022-09-01T05:46:24;8.93;;;5.47;;
65691;SDS011;52411;52.716;6.696;2022-09-01T05:48:51;8.20;;;5.38;;
65691;SDS011;52411;52.716;6.696;2022-09-01T05:51:19;6.20;;;5.40;;
65691;SDS011;52411;52.716;6.696;2022-09-01T05:53:50;7.70;;;5.38;;
65691;SDS011;52411;52.716;6.696;2022-09-01T05:56:20;7.45;;;5.25;;
65691;SDS011;52411;52.716;6.696;2022-09-01T05:58:48;7.65;;;5.32;;
65691;SDS011;52411;52.716;6.696;2022-09-01T06:01:18;10.75;;;5.63;;
65691;SDS011;52411;52.716;6.696;2022-09-01T06:03:49;6.18;;;5.07;;
65691;SDS011;52411;52.716;6.696;2022-09-01T06:06:26;5.95;;;5.10;;
65691;SDS011;52411;52.716;6.696;2022-09-01T06:08:53;12.48;;;5.18;;
65691;SDS011;52411;52.716;6.696;2022-09-01T06:11:23;7.20;;;5.50;;
65691;SDS011;52411;52.716;6.696;2022-09-01T06:13:50;7.80;;;5.20;;
65691;SDS011;52411;52.716;6.696;2022-09-01T06:16:20;8.20;;;5.30;;
65691;SDS011;52411;52.716;6.696;2022-09-01T06:18:47;7.70;;;5.25;;
65691;SDS011;52411;52.716;6.696;2022-09-01T06:21:14;8.25;;;5.07;;
65691;SDS011;52411;52.716;6.696;2022-09-01T06:23:41;6.53;;;5.00;;
65691;SDS011;52411;52.716;6.696;2022-09-01T06:28:58;7.60;;;5.18;;
65691;SDS011;52411;52.716;6.696;2022-09-01T06:31:31;7.43;;;4.97;;
65691;SDS011;52411;52.716;6.696;2022-09-01T06:34:03;7.57;;;5.32;;
65691;SDS011;52411;52.716;6.696;2022-09-01T06:36:30;8.18;;;5.45;;
65691;SDS011;52411;52.716;6.696;2022-09-01T06:38:56;6.75;;;4.93;;
65691;SDS011;52411;52.716;6.696;2022-09-01T06:41:25;10.05;;;5.20;;
65691;SDS011;52411;52.716;6.696;2022-09-01T06:43:52;10.00;;;5.15;;
65691;SDS011;52411;52.716;6.696;2022-09-01T06:46:19;7.20;;;5.15;;
65691;SDS011;52411;52.716;6.696;2022-09-01T06:48:48;9.75;;;5.63;;
65691;SDS011;52411;52.716;6.696;2022-09-01T06:51:18;11.85;;;5.30;;
65691;SDS011;52411;52.716;6.696;2022-09-01T06:53:46;5.72;;;5.05;;
65691;SDS011;52411;52.716;6.696;2022-09-01T06:56:15;6.05;;;5.05;;
65691;SDS011;52411;52.716;6.696;2022-09-01T06:58:43;7.43;;;5.82;;
65691;SDS011;52411;52.716;6.696;2022-09-01T07:01:12;8.23;;;5.03;;
65691;SDS011;52411;52.716;6.696;2022-09-01T07:03:40;6.22;;;5.00;;
65691;SDS011;52411;52.716;6.696;2022-09-01T07:06:06;6.03;;;5.13;;
65691;SDS011;52411;52.716;6.696;2022-09-01T07:08:34;7.72;;;5.28;;
65691;SDS011;52411;52.716;6.696;2022-09-01T07:11:03;10.07;;;5.45;;
65691;SDS011;52411;52.716;6.696;2022-09-01T07:13:31;7.47;;;4.90;;
65691;SDS011;52411;52.716;6.696;2022-09-01T07:15:59;8.55;;;4.80;;
65691;SDS011;52411;52.716;6.696;2022-09-01T07:18:26;8.93;;;5.28;;
65691;SDS011;52411;52.716;6.696;2022-09-01T07:20:54;8.48;;;5.40;;
65691;SDS011;52411;52.716;6.696;2022-09-01T07:23:20;9.05;;;4.93;;
65691;SDS011;52411;52.716;6.696;2022-09-01T07:25:48;9.00;;;5.10;;
65691;SDS011;52411;52.716;6.696;2022-09-01T07:30:49;5.50;;;4.90;;
65691;SDS011;52411;52.716;6.696;2022-09-01T07:33:18;7.10;;;4.70;;
65691;SDS011;52411;52.716;6.696;2022-09-01T07:35:48;11.70;;;4.63;;
65691;SDS011;52411;52.716;6.696;2022-09-01T07:38:17;7.22;;;4.88;;
65691;SDS011;52411;52.716;6.696;2022-09-01T07:40:44;9.77;;;4.60;;
65691;SDS011;52411;52.716;6.696;2022-09-01T07:43:17;5.40;;;4.43;;
65691;SDS011;52411;52.716;6.696;2022-09-01T07:45:46;6.93;;;4.40;;
65691;SDS011;52411;52.716;6.696;2022-09-01T07:48:13;7.22;;;4.65;;
65691;SDS011;52411;52.716;6.696;2022-09-01T07:50:42;6.68;;;4.43;;
65691;SDS011;52411;52.716;6.696;2022-09-01T07:53:11;6.20;;;4.28;;
65691;SDS011;52411;52.716;6.696;2022-09-01T07:55:42;8.88;;;4.50;;
65691;SDS011;52411;52.716;6.696;2022-09-01T07:58:11;8.50;;;4.30;;
65691;SDS011;52411;52.716;6.696;2022-09-01T08:00:38;7.95;;;4.45;;
65691;SDS011;52411;52.716;6.696;2022-09-01T08:03:05;6.00;;;4.20;;
65691;SDS011;52411;52.716;6.696;2022-09-01T08:05:31;8.32;;;4.30;;
65691;SDS011;52411;52.716;6.696;2022-09-01T08:07:57;7.75;;;4.07;;
65691;SDS011;52411;52.716;6.696;2022-09-01T08:10:24;6.13;;;4.35;;
65691;SDS011;52411;52.716;6.696;2022-09-01T08:12:49;8.25;;;3.92;;
65691;SDS011;52411;52.716;6.696;2022-09-01T08:15:15;5.80;;;3.67;;
65691;SDS011;52411;52.716;6.696;2022-09-01T08:17:41;8.05;;;3.78;;
65691;SDS011;52411;52.716;6.696;2022-09-01T08:20:08;7.57;;;3.70;;
65691;SDS011;52411;52.716;6.696;2022-09-01T08:22:35;6.13;;;3.70;;
65691;SDS011;52411;52.716;6.696;2022-09-01T08:25:03;6.10;;;3.25;;
65691;SDS011;52411;52.716;6.696;2022-09-01T08:27:32;7.28;;;3.33;;
65691;SDS011;52411;52.716;6.696;2022-09-01T08:30:06;5.00;;;3.42;;
65691;SDS011;52411;52.716;6.696;2022-09-01T08:32:34;5.93;;;3.10;;
65691;SDS011;52411;52.716;6.696;2022-09-01T08:35:01;5.63;;;3.15;;
65691;SDS011;52411;52.716;6.696;2022-09-01T08:37:29;5.38;;;2.92;;
65691;SDS011;52411;52.716;6.696;2022-09-01T08:39:55;4.82;;;2.70;;
65691;SDS011;52411;52.716;6.696;2022-09-01T08:45:32;3.90;;;2.58;;
65691;SDS011;52411;52.716;6.696;2022-09-01T08:48:16;4.60;;;2.50;;
65691;SDS011;52411;52.716;6.696;2022-09-01T08:50:45;4.25;;;2.40;;
65691;SDS011;52411;52.716;6.696;2022-09-01T08:53:21;5.18;;;2.47;;
65691;SDS011;52411;52.716;6.696;2022-09-01T08:55:57;6.22;;;2.50;;
65691;SDS011;52411;52.716;6.696;2022-09-01T08:58:23;6.40;;;2.20;;
65691;SDS011;52411;52.716;6.696;2022-09-01T09:00:56;6.70;;;2.28;;
65691;SDS011;52411;52.716;6.696;2022-09-01T09:06:15;3.65;;;2.20;;
65691;SDS011;52411;52.716;6.696;2022-09-01T09:21:49;4.07;;;2.13;;
65691;SDS011;52411;52.716;6.696;2022-09-01T09:24:36;9.20;;;2.33;;
65691;SDS011;52411;52.716;6.696;2022-09-01T09:27:21;3.33;;;2.17;;
65691;SDS011;52411;52.716;6.696;2022-09-01T09:29:53;5.75;;;2.08;;
65691;SDS011;52411;52.716;6.696;2022-09-01T09:32:20;2.78;;;1.88;;
65691;SDS011;52411;52.716;6.696;2022-09-01T09:34:47;4.32;;;1.85;;
65691;SDS011;52411;52.716;6.696;2022-09-01T09:37:29;2.70;;;1.80;;
65691;SDS011;52411;52.716;6.696;2022-09-01T09:40:12;2.67;;;1.90;;
65691;SDS011;52411;52.716;6.696;2022-09-01T09:42:42;7.65;;;2.40;;
65691;SDS011;52411;52.716;6.696;2022-09-01T09:45:22;4.22;;;1.98;;
65691;SDS011;52411;52.716;6.696;2022-09-01T09:47:48;3.85;;;2.00;;
65691;SDS011;52411;52.716;6.696;2022-09-01T09:52:47;3.15;;;1.90;;
65691;SDS011;52411;52.716;6.696;2022-09-01T09:57:49;4.53;;;1.88;;
65691;SDS011;52411;52.716;6.696;2022-09-01T10:00:35;5.50;;;2.00;;
65691;SDS011;52411;52.716;6.696;2022-09-01T10:05:41;3.35;;;1.90;;
65691;SDS011;52411;52.716;6.696;2022-09-01T10:08:10;4.28;;;1.90;;
65691;SDS011;52411;52.716;6.696;2022-09-01T10:10:53;6.78;;;1.85;;
65691;SDS011;52411;52.716;6.696;2022-09-01T10:13:20;3.65;;;1.77;;
65691;SDS011;52411;52.716;6.696;2022-09-01T10:15:48;5.57;;;1.85;;
65691;SDS011;52411;52.716;6.696;2022-09-01T10:18:17;3.75;;;1.60;;
65691;SDS011;52411;52.716;6.696;2022-09-01T10:23:32;5.68;;;1.90;;
65691;SDS011;52411;52.716;6.696;2022-09-01T10:26:06;4.93;;;1.80;;
65691;SDS011;52411;52.716;6.696;2022-09-01T10:28:51;2.83;;;1.90;;
65691;SDS011;52411;52.716;6.696;2022-09-01T10:31:18;4.22;;;1.60;;
65691;SDS011;52411;52.716;6.696;2022-09-01T10:33:45;4.53;;;2.03;;
65691;SDS011;52411;52.716;6.696;2022-09-01T10:36:12;7.38;;;2.03;;
65691;SDS011;52411;52.716;6.696;2022-09-01T10:38:40;4.13;;;1.45;;
65691;SDS011;52411;52.716;6.696;2022-09-01T10:41:07;5.55;;;1.48;;
65691;SDS011;52411;52.716;6.696;2022-09-01T10:43:38;2.22;;;1.58;;
65691;SDS011;52411;52.716;6.696;2022-09-01T10:48:47;2.55;;;1.58;;
65691;SDS011;52411;52.716;6.696;2022-09-01T10:53:49;3.83;;;1.50;;
65691;SDS011;52411;52.716;6.696;2022-09-01T10:59:09;4.63;;;1.83;;
65691;SDS011;52411;52.716;6.696;2022-09-01T11:04:37;6.18;;;1.88;;
65691;SDS011;52411;52.716;6.696;2022-09-01T11:09:43;5.13;;;1.70;;
65691;SDS011;52411;52.716;6.696;2022-09-01T11:12:28;3.63;;;1.60;;
65691;SDS011;52411;52.716;6.696;2022-09-01T11:20:25;6.03;;;1.70;;
65691;SDS011;52411;52.716;6.696;2022-09-01T11:25:33;9.15;;;1.58;;
65691;SDS011;52411;52.716;6.696;2022-09-01T11:36:19;2.38;;;1.60;;
65691;SDS011;52411;52.716;6.696;2022-09-01T11:39:49;5.18;;;1.58;;
65691;SDS011;52411;52.716;6.696;2022-09-01T11:41:49;3.03;;;1.38;;
65691;SDS011;52411;52.716;6.696;2022-09-01T11:44:23;3.72;;;1.40;;
65691;SDS011;52411;52.716;6.696;2022-09-01T11:47:01;2.22;;;1.63;;
65691;SDS011;52411;52.716;6.696;2022-09-01T11:49:55;2.65;;;1.70;;
65691;SDS011;52411;52.716;6.696;2022-09-01T11:52:22;2.75;;;1.52;;
65691;SDS011;52411;52.716;6.696;2022-09-01T11:54:51;5.35;;;1.70;;
65691;SDS011;52411;52.716;6.696;2022-09-01T11:57:29;2.22;;;1.67;;
65691;SDS011;52411;52.716;6.696;2022-09-01T11:59:56;7.97;;;2.03;;
65691;SDS011;52411;52.716;6.696;2022-09-01T12:02:28;8.75;;;1.88;;
65691;SDS011;52411;52.716;6.696;2022-09-01T12:04:57;4.28;;;1.85;;
65691;SDS011;52411;52.716;6.696;2022-09-01T12:09:53;2.30;;;1.70;;
65691;SDS011;52411;52.716;6.696;2022-09-01T12:14:58;6.90;;;1.92;;
65691;SDS011;52411;52.716;6.696;2022-09-01T12:17:25;6.28;;;1.90;;
65691;SDS011;52411;52.716;6.696;2022-09-01T12:19:51;4.20;;;1.80;;
65691;SDS011;52411;52.716;6.696;2022-09-01T12:22:18;5.20;;;1.75;;
65691;SDS011;52411;52.716;6.696;2022-09-01T12:24:47;3.47;;;1.52;;
65691;SDS011;52411;52.716;6.696;2022-09-01T12:27:19;4.90;;;1.38;;
65691;SDS011;52411;52.716;6.696;2022-09-01T12:29:47;3.47;;;1.48;;
65691;SDS011;52411;52.716;6.696;2022-09-01T12:32:13;3.22;;;1.50;;
65691;SDS011;52411;52.716;6.696;2022-09-01T12:34:47;4.85;;;1.48;;
65691;SDS011;52411;52.716;6.696;2022-09-01T12:37:25;5.15;;;1.58;;
65691;SDS011;52411;52.716;6.696;2022-09-01T12:39:52;4.13;;;1.23;;
65691;SDS011;52411;52.716;6.696;2022-09-01T12:45:00;3.97;;;1.50;;
65691;SDS011;52411;52.716;6.696;2022-09-01T12:49:58;8.35;;;1.98;;
65691;SDS011;52411;52.716;6.696;2022-09-01T12:55:16;3.78;;;1.50;;
65691;SDS011;52411;52.716;6.696;2022-09-01T12:58:19;2.80;;;1.60;;
65691;SDS011;52411;52.716;6.696;2022-09-01T13:00:52;2.35;;;1.23;;
65691;SDS011;52411;52.716;6.696;2022-09-01T13:03:19;3.28;;;1.40;;
65691;SDS011;52411;52.716;6.696;2022-09-01T13:05:51;9.13;;;1.75;;
65691;SDS011;52411;52.716;6.696;2022-09-01T13:08:24;3.63;;;1.90;;
65691;SDS011;52411;52.716;6.696;2022-09-01T13:10:53;2.13;;;1.92;;
65691;SDS011;52411;52.716;6.696;2022-09-01T13:13:22;6.68;;;1.40;;
65691;SDS011;52411;52.716;6.696;2022-09-01T13:15:49;15.57;;;2.35;;
65691;SDS011;52411;52.716;6.696;2022-09-01T13:18:18;8.88;;;1.50;;
65691;SDS011;52411;52.716;6.696;2022-09-01T13:20:45;6.78;;;1.55;;
65691;SDS011;52411;52.716;6.696;2022-09-01T13:23:11;1.92;;;1.20;;
65691;SDS011;52411;52.716;6.696;2022-09-01T13:25:38;3.55;;;1.55;;
65691;SDS011;52411;52.716;6.696;2022-09-01T13:28:05;1.95;;;1.48;;
65691;SDS011;52411;52.716;6.696;2022-09-01T13:30:32;6.97;;;1.58;;
65691;SDS011;52411;52.716;6.696;2022-09-01T13:32:59;2.83;;;1.50;;
65691;SDS011;52411;52.716;6.696;2022-09-01T13:35:25;3.92;;;1.30;;
65691;SDS011;52411;52.716;6.696;2022-09-01T13:37:50;6.53;;;1.60;;
65691;SDS011;52411;52.716;6.696;2022-09-01T13:40:17;2.22;;;1.40;;
65691;SDS011;52411;52.716;6.696;2022-09-01T13:42:45;6.22;;;1.75;;
65691;SDS011;52411;52.716;6.696;2022-09-01T13:45:13;2.28;;;1.38;;
65691;SDS011;52411;52.716;6.696;2022-09-01T13:47:41;2.83;;;1.30;;
65691;SDS011;52411;52.716;6.696;2022-09-01T13:50:08;2.50;;;1.35;;
65691;SDS011;52411;52.716;6.696;2022-09-01T13:52:38;4.43;;;1.48;;
65691;SDS011;52411;52.716;6.696;2022-09-01T13:55:06;5.10;;;1.25;;
65691;SDS011;52411;52.716;6.696;2022-09-01T13:57:34;2.28;;;1.30;;
65691;SDS011;52411;52.716;6.696;2022-09-01T14:00:00;3.25;;;1.30;;
65691;SDS011;52411;52.716;6.696;2022-09-01T14:02:26;1.55;;;1.20;;
65691;SDS011;52411;52.716;6.696;2022-09-01T14:04:52;4.43;;;1.35;;
65691;SDS011;52411;52.716;6.696;2022-09-01T14:07:17;1.55;;;1.30;;
65691;SDS011;52411;52.716;6.696;2022-09-01T14:09:44;1.42;;;1.27;;
65691;SDS011;52411;52.716;6.696;2022-09-01T14:12:10;2.63;;;1.20;;
65691;SDS011;52411;52.716;6.696;2022-09-01T14:14:36;3.33;;;1.40;;
65691;SDS011;52411;52.716;6.696;2022-09-01T14:17:02;5.70;;;1.48;;
65691;SDS011;52411;52.716;6.696;2022-09-01T14:19:28;3.45;;;1.20;;
65691;SDS011;52411;52.716;6.696;2022-09-01T14:21:54;3.55;;;1.40;;
65691;SDS011;52411;52.716;6.696;2022-09-01T14:24:21;3.10;;;1.30;;
65691;SDS011;52411;52.716;6.696;2022-09-01T14:26:47;4.03;;;1.05;;
65691;SDS011;52411;52.716;6.696;2022-09-01T14:29:14;7.38;;;1.38;;
65691;SDS011;52411;52.716;6.696;2022-09-01T14:31:40;1.60;;;1.20;;
65691;SDS011;52411;52.716;6.696;2022-09-01T14:34:07;6.90;;;1.20;;
65691;SDS011;52411;52.716;6.696;2022-09-01T14:36:33;4.10;;;1.17;;
65691;SDS011;52411;52.716;6.696;2022-09-01T14:38:59;3.33;;;1.13;;
65691;SDS011;52411;52.716;6.696;2022-09-01T14:41:25;3.45;;;1.20;;
65691;SDS011;52411;52.716;6.696;2022-09-01T14:43:51;2.08;;;1.10;;
65691;SDS011;52411;52.716;6.696;2022-09-01T14:46:18;1.85;;;1.10;;
65691;SDS011;52411;52.716;6.696;2022-09-01T14:48:46;5.18;;;1.27;;
65691;SDS011;52411;52.716;6.696;2022-09-01T14:51:20;3.10;;;1.20;;
65691;SDS011;52411;52.716;6.696;2022-09-01T14:53:48;2.05;;;1.30;;
65691;SDS011;52411;52.716;6.696;2022-09-01T14:56:15;5.10;;;1.30;;
65691;SDS011;52411;52.716;6.696;2022-09-01T14:58:42;2.28;;;1.20;;
65691;SDS011;52411;52.716;6.696;2022-09-01T15:01:10;2.58;;;1.27;;
65691;SDS011;52411;52.716;6.696;2022-09-01T15:03:39;5.25;;;1.20;;
65691;SDS011;52411;52.716;6.696;2022-09-01T15:06:05;3.47;;;1.30;;
65691;SDS011;52411;52.716;6.696;2022-09-01T15:08:31;4.80;;;1.30;;
65691;SDS011;52411;52.716;6.696;2022-09-01T15:10:56;3.03;;;1.20;;
65691;SDS011;52411;52.716;6.696;2022-09-01T15:13:25;1.20;;;1.10;;
65691;SDS011;52411;52.716;6.696;2022-09-01T15:15:51;5.35;;;1.20;;
65691;SDS011;52411;52.716;6.696;2022-09-01T15:18:17;1.92;;;1.20;;
65691;SDS011;52411;52.716;6.696;2022-09-01T15:20:43;7.85;;;1.40;;
65691;SDS011;52411;52.716;6.696;2022-09-01T15:23:09;4.25;;;1.33;;
65691;SDS011;52411;52.716;6.696;2022-09-01T15:25:39;2.42;;;1.00;;
65691;SDS011;52411;52.716;6.696;2022-09-01T15:28:05;1.35;;;1.08;;
65691;SDS011;52411;52.716;6.696;2022-09-01T15:30:31;3.10;;;1.13;;
65691;SDS011;52411;52.716;6.696;2022-09-01T15:32:59;2.40;;;1.08;;
65691;SDS011;52411;52.716;6.696;2022-09-01T15:35:26;9.32;;;1.00;;
65691;SDS011;52411;52.716;6.696;2022-09-01T15:37:52;1.65;;;0.95;;
65691;SDS011;52411;52.716;6.696;2022-09-01T15:40:21;2.78;;;0.98;;
65691;SDS011;52411;52.716;6.696;2022-09-01T15:42:48;1.20;;;1.00;;
65691;SDS011;52411;52.716;6.696;2022-09-01T15:45:15;3.45;;;1.00;;
65691;SDS011;52411;52.716;6.696;2022-09-01T15:47:42;2.40;;;1.02;;
65691;SDS011;52411;52.716;6.696;2022-09-01T15:50:10;4.43;;;1.02;;
65691;SDS011;52411;52.716;6.696;2022-09-01T15:52:50;4.60;;;1.23;;
65691;SDS011;52411;52.716;6.696;2022-09-01T15:55:17;5.60;;;1.13;;
65691;SDS011;52411;52.716;6.696;2022-09-01T15:57:44;2.53;;;1.02;;
65691;SDS011;52411;52.716;6.696;2022-09-01T16:00:11;4.63;;;0.90;;
65691;SDS011;52411;52.716;6.696;2022-09-01T16:02:37;3.33;;;1.17;;
65691;SDS011;52411;52.716;6.696;2022-09-01T16:05:03;3.40;;;1.00;;
65691;SDS011;52411;52.716;6.696;2022-09-01T16:07:29;2.83;;;1.10;;
65691;SDS011;52411;52.716;6.696;2022-09-01T16:09:55;4.55;;;1.20;;
65691;SDS011;52411;52.716;6.696;2022-09-01T16:12:22;2.70;;;1.20;;
65691;SDS011;52411;52.716;6.696;2022-09-01T16:14:50;2.47;;;1.00;;
65691;SDS011;52411;52.716;6.696;2022-09-01T16:18:06;4.68;;;1.15;;
65691;SDS011;52411;52.716;6.696;2022-09-01T16:20:13;4.65;;;1.10;;
65691;SDS011;52411;52.716;6.696;2022-09-01T16:22:45;2.58;;;1.10;;